Santuari del Coll - Susqueda





Hora UTC 07:35
Temperatura 21.0 ºC
Humitat 69.0 %
Pressió 1018.5 hPa
Pluja 0.0 mm
Velocitat vent 1.6 km/h
Direcció vent W

Dades diàries 2022-07-07



Hora UTC (hivern +1h; estiu +2h)
Temperatura (ºC) Humitat (%) Pressió (hPa) Velocitat vent (km/h) Precipitació (mm)
Hora UTC Aire Humitat Pressió Vel. Dir. Vel. Max Dir. Intent. màx 5 min.
00:05 16.3 81.0 1018.1 0.0 W 0.0 0.0
00:10 16.3 82.0 1018.1 0.0 W 1.6 0.0
00:15 16.3 81.0 1018.1 0.0 W 1.6 0.0
00:20 16.3 81.0 1018.1 0.0 W 0.0 0.0
00:25 16.3 81.0 1018.1 0.0 W 0.0 0.0
00:30 16.3 81.0 1018.0 0.0 W 0.0 0.0
00:35 16.3 80.0 1018.1 0.0 W 0.0 0.0
00:40 16.4 80.0 1018.0 0.0 W 0.0 0.0
00:45 16.7 80.0 1018.0 0.0 W 0.0 0.0
00:50 16.8 79.0 1018.0 0.0 W 0.0 0.0
00:55 16.8 79.0 1018.1 0.0 W 0.0 0.0
01:00 16.8 79.0 1018.0 0.0 W 0.0 0.0
01:05 16.6 79.0 1018.0 0.0 W 0.0 0.0
01:10 16.6 80.0 1017.9 0.0 W 0.0 0.0
01:15 16.4 80.0 1018.1 0.0 W 0.0 0.0
01:20 16.4 80.0 1018.0 0.0 W 0.0 0.0
01:25 16.6 80.0 1018.0 0.0 WSW 3.2 0.0
01:30 16.9 79.0 1017.9 1.6 SSW 4.8 0.0
01:35 17.1 78.0 1017.9 0.0 SSW 4.8 0.0
01:40 17.3 78.0 1017.8 3.2 S 4.8 0.0
01:45 17.4 78.0 1017.9 0.0 S 4.8 0.0
01:50 17.4 77.0 1017.8 0.0 S 4.8 0.0
01:55 17.4 77.0 1017.7 0.0 S 3.2 0.0
02:00 17.4 78.0 1017.7 0.0 S 3.2 0.0
02:05 17.3 78.0 1017.7 0.0 S 0.0 0.0
02:10 17.2 79.0 1017.7 0.0 S 1.6 0.0
02:15 17.1 82.0 1017.6 0.0 WSW 8.0 0.0
02:20 16.9 84.0 1017.6 4.8 W 8.0 0.0
02:25 16.8 85.0 1017.6 0.0 W 6.4 0.0
02:30 16.6 85.0 1017.6 0.0 W 6.4 0.0
02:35 16.4 85.0 1017.5 1.6 W 3.2 0.0
02:40 16.4 85.0 1017.5 0.0 W 3.2 0.0
02:45 16.4 84.0 1017.5 0.0 W 3.2 0.0
02:50 16.3 83.0 1017.4 0.0 W 0.0 0.0
02:55 16.3 83.0 1017.5 0.0 W 0.0 0.0
03:00 16.4 83.0 1017.5 1.6 WSW 3.2 0.0
03:05 16.4 81.0 1017.5 0.0 WSW 3.2 0.0
03:10 16.7 79.0 1017.4 0.0 SSW 1.6 0.0
03:15 17.2 77.0 1017.4 0.0 S 4.8 0.0
03:20 17.5 77.0 1017.4 0.0 S 4.8 0.0
03:25 17.5 77.0 1017.5 0.0 S 3.2 0.0
03:30 17.3 79.0 1017.5 3.2 WSW 6.4 0.0
03:35 17.0 80.0 1017.6 4.8 WSW 9.7 0.0
03:40 16.8 82.0 1017.6 1.6 WSW 9.7 0.0
03:45 16.5 82.0 1017.7 0.0 WSW 4.8 0.0
03:50 16.4 81.0 1017.6 0.0 WSW 3.2 0.0
03:55 16.4 80.0 1017.6 0.0 WSW 3.2 0.0
04:00 16.4 80.0 1017.6 0.0 WSW 1.6 0.0
04:05 16.5 80.0 1017.7 0.0 SW 1.6 0.0
04:10 16.4 80.0 1017.7 0.0 WSW 1.6 0.0
04:15 16.6 80.0 1017.7 0.0 WSW 4.8 0.0
04:20 16.7 79.0 1017.6 0.0 WSW 4.8 0.0
04:25 16.8 78.0 1017.6 1.6 SSW 3.2 0.0
04:30 17.0 77.0 1017.6 0.0 S 4.8 0.0
04:35 17.2 76.0 1017.7 1.6 S 6.4 0.0
04:40 17.3 76.0 1017.7 4.8 SW 4.8 0.0
04:45 17.3 78.0 1017.7 1.6 SSW 4.8 0.0
04:50 17.3 77.0 1017.8 0.0 S 4.8 0.0
04:55 17.3 77.0 1017.8 0.0 S 4.8 0.0
05:00 17.2 80.0 1017.8 1.6 WSW 6.4 0.0
05:05 16.9 82.0 1017.8 3.2 WSW 6.4 0.0
05:10 16.8 83.0 1017.9 3.2 W 6.4 0.0
05:15 16.7 84.0 1017.9 3.2 WSW 8.0 0.0
05:20 16.7 84.0 1018.0 3.2 WSW 8.0 0.0
05:25 16.7 84.0 1017.9 1.6 WSW 6.4 0.0
05:30 16.7 84.0 1018.0 1.6 SW 6.4 0.0
05:35 16.8 84.0 1018.0 1.6 SW 4.8 0.0
05:40 16.8 84.0 1018.0 0.0 WSW 6.4 0.0
05:45 16.9 84.0 1018.1 1.6 W 6.4 0.0
05:50 16.9 83.0 1018.1 4.8 WSW 6.4 0.0
05:55 17.1 83.0 1018.1 3.2 WSW 6.4 0.0
06:00 17.3 81.0 1018.1 3.2 SW 6.4 0.0
06:05 17.6 80.0 1018.1 4.8 W 9.7 0.0
06:10 17.8 78.0 1018.1 3.2 W 8.0 0.0
06:15 18.1 78.0 1018.2 0.0 WSW 8.0 0.0
06:20 18.3 77.0 1018.1 0.0 S 6.4 0.0
06:25 18.7 76.0 1018.2 3.2 WNW 11.3 0.0
06:30 19.0 74.0 1018.2 3.2 WNW 11.3 0.0
06:35 19.2 74.0 1018.2 0.0 WNW 8.0 0.0
06:40 19.2 74.0 1018.2 4.8 W 8.0 0.0
06:45 19.2 74.0 1018.2 3.2 WNW 9.7 0.0
06:50 19.3 74.0 1018.2 4.8 W 11.3 0.0
06:55 19.5 74.0 1018.2 6.4 W 11.3 0.0
07:00 19.8 73.0 1018.3 4.8 W 8.0 0.0
07:05 20.2 72.0 1018.4 1.6 WNW 8.0 0.0
07:10 20.3 71.0 1018.4 4.8 WNW 8.0 0.0
07:15 20.4 70.0 1018.4 1.6 W 8.0 0.0
07:20 20.6 70.0 1018.4 3.2 WSW 8.0 0.0
07:25 20.8 70.0 1018.4 1.6 W 8.0 0.0
07:30 21.1 70.0 1018.4 6.4 WNW 11.3 0.0
07:35 21.0 69.0 1018.5 1.6 W 11.3 0.0
Màxima 21.1 85.0 1018.5 6.4 WNW 11.3 0.0
Mínima 16.2 69.0 1017.4
Total 0.0